Time;durP1;ratioP1;P1;durP2;ratioP2;P2;SDS_P1;SDS_P2;PMS_P1;PMS_P2;Temp;Humidity;BMP_temperature;BMP_pressure;BME280_temperature;BME280_humidity;BME280_pressure;Samples;Min_cycle;Max_cycle;Signal;HPM_P1;HPM_P2
2024/02/13 00:00:33;;;;;;;12.27;5.80;;;5.90;99.90;;;;;;5007349;28;21012;-49
2024/02/13 00:03:00;;;;;;;13.03;5.73;;;5.90;99.90;;;;;;4997340;28;20207;-50
2024/02/13 00:05:29;;;;;;;13.93;5.93;;;5.90;99.90;;;;;;5014358;28;20219;-51
2024/02/13 00:07:59;;;;;;;11.90;6.13;;;5.90;99.90;;;;;;5017653;28;20196;-51
2024/02/13 00:10:26;;;;;;;8.97;5.90;;;5.90;99.90;;;;;;5012681;28;20270;-49
2024/02/13 00:12:53;;;;;;;11.30;5.30;;;5.90;99.90;;;;;;5013380;28;20610;-54
2024/02/13 00:15:21;;;;;;;13.07;5.97;;;5.90;99.90;;;;;;5009148;28;20254;-53
2024/02/13 00:17:48;;;;;;;9.83;5.90;;;5.90;99.90;;;;;;4994310;28;20275;-51
2024/02/13 00:20:15;;;;;;;12.67;5.80;;;5.90;99.90;;;;;;5011648;28;20203;-53
2024/02/13 00:22:44;;;;;;;13.20;5.60;;;5.90;99.90;;;;;;5011326;28;20205;-51
2024/02/13 00:25:12;;;;;;;11.63;5.87;;;5.80;99.90;;;;;;5011251;28;20216;-54
2024/02/13 00:27:39;;;;;;;6.37;5.17;;;5.80;99.90;;;;;;5012224;28;20185;-52
2024/02/13 00:30:09;;;;;;;15.03;5.93;;;5.80;99.90;;;;;;5011449;28;20215;-53
2024/02/13 00:32:37;;;;;;;11.00;5.33;;;5.80;99.90;;;;;;4980459;28;22013;-49
2024/02/13 00:35:04;;;;;;;14.73;5.67;;;5.80;99.90;;;;;;5012263;28;20220;-49
2024/02/13 00:37:32;;;;;;;11.23;5.47;;;5.80;99.90;;;;;;5007653;28;20196;-52
2024/02/13 00:40:02;;;;;;;11.20;6.13;;;5.80;99.90;;;;;;5010494;28;20212;-49
2024/02/13 00:42:30;;;;;;;16.97;6.57;;;5.80;99.90;;;;;;5009837;28;20188;-49
2024/02/13 00:45:00;;;;;;;11.10;5.00;;;5.80;99.90;;;;;;5013453;28;20228;-49
2024/02/13 00:47:28;;;;;;;11.67;5.90;;;5.80;99.90;;;;;;4988743;28;20208;-48
2024/02/13 00:49:55;;;;;;;8.57;5.07;;;5.80;99.90;;;;;;5016081;28;20282;-47
2024/02/13 00:52:22;;;;;;;11.07;5.63;;;5.80;99.90;;;;;;5019687;28;20254;-53
2024/02/13 00:54:49;;;;;;;13.00;5.70;;;5.80;99.90;;;;;;5018516;28;20211;-52
2024/02/13 00:57:18;;;;;;;16.13;5.40;;;5.80;99.90;;;;;;5022765;28;20199;-51
2024/02/13 00:59:44;;;;;;;13.53;5.30;;;5.70;99.90;;;;;;5019937;28;20188;-51
2024/02/13 01:02:11;;;;;;;13.97;6.33;;;5.80;99.90;;;;;;5022708;28;20674;-47
2024/02/13 01:04:38;;;;;;;10.47;4.93;;;5.70;99.90;;;;;;4996823;28;20219;-53
2024/02/13 01:07:05;;;;;;;7.43;5.37;;;5.70;99.90;;;;;;5019833;28;20203;-50
2024/02/13 01:09:32;;;;;;;14.20;5.27;;;5.70;99.90;;;;;;5019890;28;20544;-54
2024/02/13 01:11:59;;;;;;;10.10;4.50;;;5.60;99.90;;;;;;5017130;28;20204;-48
2024/02/13 01:14:27;;;;;;;11.83;4.10;;;5.60;99.90;;;;;;5017924;28;20223;-49
2024/02/13 01:16:53;;;;;;;9.70;4.47;;;5.60;99.90;;;;;;5013781;28;20269;-50
2024/02/13 01:19:20;;;;;;;10.07;4.37;;;5.60;99.90;;;;;;4998496;28;20208;-47
2024/02/13 01:21:47;;;;;;;8.13;4.37;;;5.50;99.90;;;;;;5003862;28;20626;-53
2024/02/13 01:24:15;;;;;;;7.50;3.47;;;5.50;99.90;;;;;;5017996;28;20224;-50
2024/02/13 01:26:43;;;;;;;9.40;4.30;;;5.40;99.90;;;;;;5008032;28;20201;-50
2024/02/13 01:29:11;;;;;;;6.87;4.93;;;5.30;99.90;;;;;;5015059;28;20196;-52
2024/02/13 01:31:39;;;;;;;5.77;4.23;;;5.30;99.90;;;;;;5010493;28;20228;-51
2024/02/13 01:34:08;;;;;;;8.40;4.47;;;5.30;99.90;;;;;;4994994;28;20227;-48
2024/02/13 01:36:37;;;;;;;7.73;3.87;;;5.20;99.90;;;;;;5011863;28;20200;-53
2024/02/13 01:39:03;;;;;;;10.37;5.03;;;5.20;99.90;;;;;;5013266;28;20207;-49
2024/02/13 01:41:30;;;;;;;5.07;3.97;;;5.20;99.90;;;;;;5011700;28;20196;-51
2024/02/13 01:43:58;;;;;;;10.20;4.23;;;5.10;99.90;;;;;;5015502;28;20253;-50
2024/02/13 01:46:26;;;;;;;6.77;3.80;;;5.10;99.90;;;;;;5014216;28;20604;-52
2024/02/13 01:48:58;;;;;;;6.10;3.90;;;5.10;99.90;;;;;;4988120;28;25506;-50
2024/02/13 01:51:28;;;;;;;8.40;4.73;;;5.10;99.90;;;;;;5020938;28;20199;-51
2024/02/13 01:53:58;;;;;;;5.47;3.97;;;5.00;99.90;;;;;;5013456;28;20220;-49
2024/02/13 01:56:27;;;;;;;12.67;4.50;;;5.00;99.90;;;;;;5018032;28;20357;-51
2024/02/13 01:58:54;;;;;;;11.03;4.57;;;5.00;99.90;;;;;;5009957;28;20283;-49
2024/02/13 02:01:24;;;;;;;10.40;4.30;;;4.90;99.90;;;;;;5021468;28;20192;-50
2024/02/13 02:03:54;;;;;;;13.43;4.10;;;4.90;99.90;;;;;;5018222;28;20922;-51
2024/02/13 02:06:22;;;;;;;11.93;4.43;;;4.90;99.90;;;;;;4996755;28;20204;-53
2024/02/13 02:08:48;;;;;;;13.30;4.47;;;4.90;99.90;;;;;;5016532;28;21098;-51
2024/02/13 02:11:15;;;;;;;7.97;3.97;;;4.80;99.90;;;;;;5019589;28;20261;-53
2024/02/13 02:13:43;;;;;;;10.93;4.43;;;4.80;99.90;;;;;;5010459;28;20255;-54
2024/02/13 02:16:10;;;;;;;7.63;3.70;;;4.80;99.90;;;;;;5014914;28;20212;-50
2024/02/13 02:18:37;;;;;;;8.07;4.23;;;4.80;99.90;;;;;;5014059;28;20280;-52
2024/02/13 02:21:04;;;;;;;8.00;4.20;;;4.80;99.90;;;;;;4991998;28;20297;-50
2024/02/13 02:23:34;;;;;;;9.00;3.77;;;4.80;99.90;;;;;;5014858;28;20196;-55
2024/02/13 02:26:02;;;;;;;9.97;4.27;;;4.70;99.90;;;;;;5012673;28;20212;-52
2024/02/13 02:28:29;;;;;;;8.20;4.10;;;4.70;99.90;;;;;;5012217;28;20847;-52
2024/02/13 02:30:56;;;;;;;7.57;4.33;;;4.70;99.90;;;;;;5005400;28;20258;-52
2024/02/13 02:33:23;;;;;;;13.13;4.93;;;4.70;99.90;;;;;;5013466;28;20207;-52
2024/02/13 02:35:50;;;;;;;8.37;4.30;;;4.70;99.90;;;;;;4987927;28;21734;-49
2024/02/13 02:38:17;;;;;;;7.87;4.40;;;4.70;99.90;;;;;;5017516;28;20200;-51
2024/02/13 02:40:44;;;;;;;9.60;4.70;;;4.60;99.90;;;;;;5008871;28;20197;-53
2024/02/13 02:43:12;;;;;;;7.87;4.17;;;4.60;99.90;;;;;;5013661;28;20279;-49
2024/02/13 02:45:40;;;;;;;6.97;3.73;;;4.60;99.90;;;;;;5005747;28;20220;-54
2024/02/13 02:48:08;;;;;;;4.20;3.77;;;4.60;99.90;;;;;;5012513;28;20261;-49
2024/02/13 02:50:35;;;;;;;6.70;4.13;;;4.60;99.90;;;;;;5003368;28;20224;-53
2024/02/13 02:53:02;;;;;;;10.40;4.20;;;4.70;99.90;;;;;;4998752;28;20196;-54
2024/02/13 02:55:29;;;;;;;9.37;3.80;;;4.70;99.90;;;;;;5014230;28;20238;-54
2024/02/13 02:57:56;;;;;;;7.50;3.80;;;4.70;99.90;;;;;;5017091;28;20210;-50
2024/02/13 03:00:25;;;;;;;10.63;4.53;;;4.80;99.90;;;;;;5020594;28;20291;-50
2024/02/13 03:02:52;;;;;;;7.77;3.87;;;4.80;99.90;;;;;;5008164;28;20235;-51
2024/02/13 03:05:18;;;;;;;8.60;4.37;;;4.80;99.90;;;;;;5016108;28;20258;-49
2024/02/13 03:07:45;;;;;;;5.13;3.60;;;4.80;99.90;;;;;;4993445;28;20200;-53
2024/02/13 03:10:12;;;;;;;8.53;3.90;;;4.80;99.90;;;;;;5018889;28;20192;-50
2024/02/13 03:12:40;;;;;;;4.87;3.60;;;4.80;99.90;;;;;;5013210;28;20290;-53
2024/02/13 03:15:07;;;;;;;8.20;4.13;;;4.90;99.90;;;;;;5015599;28;20223;-50
2024/02/13 03:17:37;;;;;;;6.60;3.80;;;4.90;99.90;;;;;;5005837;28;20232;-54
2024/02/13 03:20:06;;;;;;;6.03;4.00;;;4.90;99.90;;;;;;5014427;28;20196;-52
2024/02/13 03:22:36;;;;;;;5.00;3.70;;;4.90;99.90;;;;;;4994412;28;20199;-53
2024/02/13 03:25:04;;;;;;;10.40;4.20;;;4.90;99.90;;;;;;5012716;28;20399;-52
2024/02/13 03:27:31;;;;;;;9.50;4.30;;;4.90;99.90;;;;;;5012038;28;20192;-53
2024/02/13 03:29:57;;;;;;;6.93;3.63;;;4.90;99.90;;;;;;5009373;28;20271;-50
2024/02/13 03:32:25;;;;;;;9.67;4.20;;;4.90;99.90;;;;;;5013221;28;20204;-53
2024/02/13 03:34:53;;;;;;;5.03;3.63;;;4.90;99.90;;;;;;5009410;28;20221;-52
2024/02/13 03:37:20;;;;;;;5.60;3.87;;;4.90;99.90;;;;;;4991010;28;20210;-51
2024/02/13 03:39:48;;;;;;;7.10;3.93;;;5.00;99.90;;;;;;5007609;28;20192;-53
2024/02/13 03:42:15;;;;;;;6.93;4.20;;;5.00;99.90;;;;;;5013226;28;20273;-50
2024/02/13 03:44:42;;;;;;;8.97;3.70;;;5.00;99.90;;;;;;5007876;28;20286;-54
2024/02/13 03:47:09;;;;;;;13.67;4.13;;;5.00;99.90;;;;;;5010239;28;20192;-48
2024/02/13 03:49:36;;;;;;;8.87;4.13;;;5.00;99.90;;;;;;5009218;28;20294;-53
2024/02/13 03:52:04;;;;;;;9.10;3.77;;;5.00;99.90;;;;;;5015450;28;20212;-53
2024/02/13 03:54:32;;;;;;;7.27;3.23;;;5.00;99.90;;;;;;4981539;28;20223;-51
2024/02/13 03:57:00;;;;;;;7.67;3.93;;;4.90;99.90;;;;;;5016057;28;20200;-54
2024/02/13 03:59:29;;;;;;;8.07;4.47;;;5.00;99.90;;;;;;5016773;28;20195;-53
2024/02/13 04:01:55;;;;;;;5.67;2.87;;;4.90;99.90;;;;;;5019410;28;20662;-49
2024/02/13 04:04:22;;;;;;;8.20;3.37;;;4.90;99.90;;;;;;5004264;28;20941;-50
2024/02/13 04:06:49;;;;;;;8.30;3.97;;;4.90;99.90;;;;;;5019155;28;20196;-49
2024/02/13 04:09:17;;;;;;;6.47;3.30;;;4.80;99.90;;;;;;4992145;28;20208;-52
2024/02/13 04:11:45;;;;;;;10.07;3.47;;;4.80;99.90;;;;;;5017441;28;20192;-53
2024/02/13 04:14:12;;;;;;;5.47;3.20;;;4.80;99.90;;;;;;5014314;28;20227;-54
2024/02/13 04:16:40;;;;;;;8.07;3.30;;;4.80;99.90;;;;;;5015561;28;20274;-51
2024/02/13 04:19:07;;;;;;;10.17;3.30;;;4.80;99.90;;;;;;5014546;28;20219;-53
2024/02/13 04:21:34;;;;;;;8.03;3.63;;;4.80;99.90;;;;;;5018414;28;20196;-50
2024/02/13 04:24:03;;;;;;;5.13;3.33;;;4.70;99.90;;;;;;5000094;28;20224;-50
2024/02/13 04:26:31;;;;;;;6.07;3.33;;;4.70;99.90;;;;;;5007501;28;20316;-49
2024/02/13 04:28:57;;;;;;;7.00;4.03;;;4.70;99.90;;;;;;5023053;28;20196;-49
2024/02/13 04:31:24;;;;;;;7.50;3.80;;;4.70;99.90;;;;;;5019006;28;20215;-51
2024/02/13 04:33:52;;;;;;;10.70;3.77;;;4.70;99.90;;;;;;5021102;28;20731;-52
2024/02/13 04:36:19;;;;;;;7.67;3.90;;;4.70;99.90;;;;;;5014207;28;20223;-52
2024/02/13 04:38:45;;;;;;;6.10;3.23;;;4.60;99.90;;;;;;5016165;28;20216;-49
2024/02/13 04:41:13;;;;;;;6.10;3.27;;;4.60;99.90;;;;;;4983536;28;20216;-54
2024/02/13 04:43:43;;;;;;;7.37;3.40;;;4.60;99.90;;;;;;5016492;28;20655;-51
2024/02/13 04:46:10;;;;;;;12.13;3.40;;;4.60;99.90;;;;;;5012082;28;20218;-53
2024/02/13 04:48:37;;;;;;;11.73;4.07;;;4.60;99.90;;;;;;5012288;28;20279;-60
2024/02/13 04:51:05;;;;;;;6.17;3.97;;;4.60;99.90;;;;;;5014705;28;20567;-51
2024/02/13 04:53:32;;;;;;;10.73;4.67;;;4.60;99.90;;;;;;5012198;28;21021;-48
2024/02/13 04:55:59;;;;;;;5.30;4.03;;;4.60;99.90;;;;;;4989431;28;20220;-51
2024/02/13 04:58:31;;;;;;;12.50;4.27;;;4.50;99.90;;;;;;5014829;28;20262;-52
2024/02/13 05:01:04;;;;;;;8.03;4.20;;;4.60;99.90;;;;;;5018969;28;20218;-51
2024/02/13 05:07:19;;;;;;;8.77;4.80;;;4.50;99.90;;;;;;5008341;28;20928;-51
2024/02/13 05:09:11;;;;;;;10.23;4.23;;;4.50;99.90;;;;;;5009965;28;20199;-51
2024/02/13 05:11:39;;;;;;;10.73;3.70;;;4.50;99.90;;;;;;4993452;28;20672;-48
2024/02/13 05:14:08;;;;;;;11.00;4.50;;;4.50;99.90;;;;;;5019406;28;20215;-50
2024/02/13 05:16:38;;;;;;;9.03;4.37;;;4.50;99.90;;;;;;5019965;28;20576;-52
2024/02/13 05:19:06;;;;;;;8.33;4.50;;;4.50;99.90;;;;;;5021247;28;20219;-49
2024/02/13 05:21:34;;;;;;;8.67;4.70;;;4.50;99.90;;;;;;5019833;28;20270;-53
2024/02/13 05:24:02;;;;;;;11.27;4.53;;;4.50;99.90;;;;;;5017554;28;20220;-51
2024/02/13 05:26:29;;;;;;;7.50;5.17;;;4.50;99.90;;;;;;4991718;28;20559;-49
2024/02/13 05:28:56;;;;;;;9.50;5.30;;;4.50;99.90;;;;;;5018246;28;20192;-53
2024/02/13 05:31:23;;;;;;;8.53;5.47;;;4.50;99.90;;;;;;5015702;28;20215;-48
2024/02/13 05:33:52;;;;;;;8.17;5.40;;;4.50;99.90;;;;;;5018330;28;20242;-53
2024/02/13 05:36:18;;;;;;;8.87;5.13;;;4.50;99.90;;;;;;5015193;28;20187;-52
2024/02/13 05:38:46;;;;;;;11.20;5.80;;;4.50;99.90;;;;;;5018671;28;20197;-54
2024/02/13 05:41:13;;;;;;;9.93;6.17;;;4.40;99.90;;;;;;5006939;28;20199;-51
2024/02/13 05:43:41;;;;;;;10.10;5.30;;;4.50;99.90;;;;;;4990709;28;20209;-52
2024/02/13 05:46:08;;;;;;;14.27;6.33;;;4.40;99.90;;;;;;5008450;28;20208;-48
2024/02/13 05:48:36;;;;;;;15.07;6.73;;;4.50;99.90;;;;;;5013090;28;20205;-48
2024/02/13 05:51:09;;;;;;;11.50;6.13;;;4.40;99.90;;;;;;5010481;28;20224;-51
2024/02/13 05:53:36;;;;;;;8.27;6.43;;;4.50;99.90;;;;;;5012686;28;20231;-51
2024/02/13 05:56:03;;;;;;;13.20;6.73;;;4.40;99.90;;;;;;5001512;28;20223;-51
2024/02/13 05:58:30;;;;;;;11.10;7.03;;;4.40;99.90;;;;;;4991870;28;20192;-47
2024/02/13 06:00:57;;;;;;;12.83;7.27;;;4.40;99.90;;;;;;5000883;28;20253;-52
2024/02/13 06:03:24;;;;;;;13.53;7.30;;;4.30;99.90;;;;;;5010029;28;20250;-50
2024/02/13 06:05:51;;;;;;;14.07;7.37;;;4.30;99.90;;;;;;5006827;28;20742;-48
2024/02/13 06:08:20;;;;;;;11.23;7.43;;;4.30;99.90;;;;;;5014640;28;20231;-52
2024/02/13 06:10:47;;;;;;;13.33;7.60;;;4.30;99.90;;;;;;5021065;28;20297;-51
2024/02/13 06:13:15;;;;;;;14.07;7.47;;;4.30;99.90;;;;;;5003375;28;20206;-54
2024/02/13 06:15:42;;;;;;;13.50;7.50;;;4.20;99.90;;;;;;4995863;28;20241;-51
2024/02/13 06:18:09;;;;;;;12.97;7.53;;;4.30;99.90;;;;;;5014035;28;20224;-54
2024/02/13 06:20:36;;;;;;;13.37;7.60;;;4.20;99.90;;;;;;5021370;28;20200;-53
2024/02/13 06:23:03;;;;;;;17.67;7.80;;;4.20;99.90;;;;;;5010473;28;20198;-52
2024/02/13 06:25:31;;;;;;;10.00;7.77;;;4.20;99.90;;;;;;5019163;28;20274;-51
2024/02/13 06:27:58;;;;;;;14.80;8.63;;;4.20;99.90;;;;;;5009058;28;20223;-53
2024/02/13 06:30:24;;;;;;;18.07;7.50;;;4.10;99.90;;;;;;4997825;28;20204;-52
2024/02/13 06:32:51;;;;;;;13.20;8.13;;;4.20;99.90;;;;;;5009530;28;20192;-54
2024/02/13 06:35:18;;;;;;;18.00;7.93;;;4.20;99.90;;;;;;5017123;28;20270;-48
2024/02/13 06:37:46;;;;;;;11.13;7.80;;;4.10;99.90;;;;;;5009757;28;20289;-53
2024/02/13 06:40:14;;;;;;;13.53;8.63;;;4.10;99.90;;;;;;5019298;28;20206;-49
2024/02/13 06:42:43;;;;;;;16.70;7.80;;;4.10;99.90;;;;;;5011703;28;20201;-51
2024/02/13 06:45:10;;;;;;;15.60;8.67;;;4.10;99.90;;;;;;4990965;28;20944;-50
2024/02/13 06:47:38;;;;;;;15.37;9.73;;;4.10;99.90;;;;;;5009491;28;20683;-49
2024/02/13 06:50:10;;;;;;;11.80;8.80;;;4.10;99.90;;;;;;5015344;28;20396;-49
2024/02/13 06:52:36;;;;;;;21.83;10.07;;;4.10;99.90;;;;;;5002834;28;20241;-54
2024/02/13 06:55:03;;;;;;;15.30;9.57;;;4.10;99.90;;;;;;5011130;28;20232;-47
2024/02/13 06:57:32;;;;;;;17.87;9.20;;;4.10;99.90;;;;;;5011837;28;20257;-50
2024/02/13 07:00:00;;;;;;;14.43;9.20;;;4.10;99.90;;;;;;4986330;28;20289;-49
2024/02/13 07:02:27;;;;;;;15.37;10.07;;;4.20;99.90;;;;;;5001405;28;20918;-50
2024/02/13 07:04:54;;;;;;;15.60;8.80;;;4.20;99.90;;;;;;5013740;28;20270;-49
2024/02/13 07:07:21;;;;;;;14.27;9.33;;;4.20;99.90;;;;;;5011966;28;20227;-51
2024/02/13 07:09:52;;;;;;;15.00;9.17;;;4.20;99.90;;;;;;5013050;28;20929;-52
2024/02/13 07:12:20;;;;;;;18.00;8.97;;;4.20;99.90;;;;;;5010744;28;20196;-49
2024/02/13 07:14:46;;;;;;;17.13;10.50;;;4.20;99.90;;;;;;5006034;28;20227;-53
2024/02/13 07:17:15;;;;;;;15.17;9.70;;;4.20;99.90;;;;;;4996807;28;20675;-51
2024/02/13 07:19:42;;;;;;;15.50;9.40;;;4.20;99.90;;;;;;5004651;28;20203;-50
2024/02/13 07:22:10;;;;;;;16.37;9.10;;;4.20;99.90;;;;;;5013294;28;20208;-52
2024/02/13 07:24:38;;;;;;;13.73;9.73;;;4.20;99.90;;;;;;5016762;28;20274;-50
2024/02/13 07:27:05;;;;;;;16.67;9.60;;;4.20;99.90;;;;;;4990394;28;20212;-51
2024/02/13 07:29:33;;;;;;;17.33;10.97;;;4.20;99.90;;;;;;5010916;28;20303;-53
2024/02/13 07:32:01;;;;;;;17.37;10.07;;;4.30;99.90;;;;;;4993964;28;20214;-49
2024/02/13 07:34:29;;;;;;;15.53;10.83;;;4.30;99.90;;;;;;5011395;28;20226;-53
2024/02/13 07:36:56;;;;;;;19.97;10.80;;;4.30;99.90;;;;;;5007822;28;20223;-55
2024/02/13 07:39:22;;;;;;;17.13;10.83;;;4.40;99.90;;;;;;5007386;28;20328;-48
2024/02/13 07:41:49;;;;;;;17.03;10.50;;;4.40;99.90;;;;;;5001038;28;20196;-52
2024/02/13 07:44:16;;;;;;;18.03;11.03;;;4.50;99.90;;;;;;5004709;28;20248;-48
2024/02/13 07:46:43;;;;;;;18.97;11.60;;;4.60;99.90;;;;;;4986624;28;20274;-49
2024/02/13 07:49:10;;;;;;;20.53;11.97;;;4.60;99.90;;;;;;5003098;28;20945;-47
2024/02/13 07:51:39;;;;;;;19.30;10.87;;;4.60;99.90;;;;;;5014548;28;20200;-49
2024/02/13 07:54:06;;;;;;;24.03;12.57;;;4.70;99.90;;;;;;5007709;28;20211;-47
2024/02/13 07:56:35;;;;;;;18.70;11.67;;;4.80;99.90;;;;;;5014216;28;20605;-48
2024/02/13 07:59:02;;;;;;;15.97;12.10;;;4.80;99.90;;;;;;5010757;28;20207;-47
2024/02/13 08:01:29;;;;;;;24.70;12.73;;;4.80;99.90;;;;;;5006776;28;20208;-47
2024/02/13 08:03:56;;;;;;;18.70;13.30;;;4.90;99.90;;;;;;4980592;28;20333;-51
2024/02/13 08:06:22;;;;;;;19.93;13.23;;;4.80;99.90;;;;;;5003359;28;20258;-45
2024/02/13 08:08:51;;;;;;;20.87;12.57;;;4.90;99.90;;;;;;5003365;28;20429;-46
2024/02/13 08:11:18;;;;;;;23.23;12.07;;;4.90;99.90;;;;;;5011947;28;20200;-46
2024/02/13 08:13:45;;;;;;;18.40;12.53;;;4.90;99.90;;;;;;5007109;28;20199;-48
2024/02/13 08:16:13;;;;;;;19.03;13.37;;;5.00;99.90;;;;;;5007873;28;20292;-46
2024/02/13 08:18:40;;;;;;;20.00;13.10;;;5.00;99.90;;;;;;4990632;28;20213;-52
2024/02/13 08:21:07;;;;;;;20.03;13.07;;;5.00;99.90;;;;;;5002148;28;20287;-48
2024/02/13 08:23:34;;;;;;;26.97;13.50;;;5.00;99.90;;;;;;5014208;28;20334;-47
2024/02/13 08:26:02;;;;;;;18.27;12.63;;;5.10;99.90;;;;;;5016374;28;20216;-50
2024/02/13 08:28:30;;;;;;;20.70;12.50;;;5.10;99.90;;;;;;5008818;28;20693;-53
2024/02/13 08:30:57;;;;;;;20.73;12.80;;;5.10;99.90;;;;;;5014435;28;20192;-47
2024/02/13 08:33:24;;;;;;;18.33;12.37;;;5.20;99.90;;;;;;5003405;28;20851;-50
2024/02/13 08:35:52;;;;;;;17.93;12.67;;;5.20;99.90;;;;;;4988913;28;20290;-49
2024/02/13 08:38:20;;;;;;;18.57;12.87;;;5.20;99.90;;;;;;5014049;28;20621;-45
2024/02/13 08:40:47;;;;;;;20.33;13.50;;;5.20;99.90;;;;;;5000455;28;20881;-47
2024/02/13 08:43:20;;;;;;;20.90;13.43;;;5.30;99.90;;;;;;5020917;28;20198;-45
2024/02/13 08:45:49;;;;;;;23.37;14.03;;;5.30;99.90;;;;;;5011786;28;20220;-46
2024/02/13 08:48:16;;;;;;;23.10;12.97;;;5.30;99.90;;;;;;5011521;28;20208;-46
2024/02/13 08:50:45;;;;;;;17.47;11.53;;;5.30;99.90;;;;;;4978117;28;20200;-46
2024/02/13 08:53:12;;;;;;;20.27;13.07;;;5.40;99.90;;;;;;5013920;28;20212;-47
2024/02/13 08:55:41;;;;;;;17.33;12.73;;;5.40;99.90;;;;;;5000758;28;20232;-45
2024/02/13 08:58:10;;;;;;;22.10;12.70;;;5.50;99.90;;;;;;5016779;28;20282;-46
2024/02/13 09:00:39;;;;;;;16.30;12.30;;;5.50;99.90;;;;;;5010542;28;20636;-49
2024/02/13 09:03:07;;;;;;;22.30;13.00;;;5.60;99.90;;;;;;5014592;28;20203;-50
2024/02/13 09:05:35;;;;;;;16.23;10.03;;;5.60;99.90;;;;;;4993616;28;20231;-51
2024/02/13 09:08:02;;;;;;;17.23;11.50;;;5.60;99.90;;;;;;5007924;28;20287;-53
2024/02/13 09:10:29;;;;;;;16.60;11.90;;;5.70;99.90;;;;;;5018818;28;20196;-48
2024/02/13 09:12:57;;;;;;;16.03;11.70;;;5.70;99.90;;;;;;5019458;28;20204;-49
2024/02/13 09:15:25;;;;;;;22.70;11.70;;;5.80;99.90;;;;;;5013213;28;20250;-47
2024/02/13 09:17:53;;;;;;;16.60;11.03;;;5.80;99.90;;;;;;5013599;28;20204;-47
2024/02/13 09:20:21;;;;;;;18.07;10.80;;;5.80;99.90;;;;;;5023088;28;20666;-48
2024/02/13 09:22:49;;;;;;;16.03;11.10;;;5.90;99.90;;;;;;4993226;28;20205;-44
2024/02/13 09:25:17;;;;;;;17.03;11.00;;;5.90;99.90;;;;;;5022763;28;21012;-47
2024/02/13 09:27:47;;;;;;;16.67;10.03;;;5.90;99.90;;;;;;5016976;28;20909;-45
2024/02/13 09:30:16;;;;;;;16.70;11.20;;;6.00;99.90;;;;;;5013413;28;20200;-45
2024/02/13 09:32:50;;;;;;;17.33;10.10;;;6.00;99.90;;;;;;5013164;28;20331;-49
2024/02/13 09:35:29;;;;;;;17.83;10.17;;;6.10;99.90;;;;;;5020616;28;20686;-51
2024/02/13 09:37:57;;;;;;;15.57;10.93;;;6.00;99.90;;;;;;4987033;28;20215;-49
2024/02/13 09:40:29;;;;;;;17.70;10.13;;;6.00;99.90;;;;;;5023554;28;20184;-49
2024/02/13 09:42:56;;;;;;;16.73;10.37;;;6.00;99.90;;;;;;5011834;28;20860;-47
2024/02/13 09:45:27;;;;;;;13.60;9.50;;;6.10;99.90;;;;;;5017143;28;20220;-51
2024/02/13 09:48:02;;;;;;;15.97;10.30;;;6.00;99.90;;;;;;5013773;28;20216;-46
2024/02/13 09:50:37;;;;;;;14.47;10.13;;;6.10;99.90;;;;;;5016894;28;20741;-48
2024/02/13 09:53:10;;;;;;;14.90;10.43;;;6.10;99.90;;;;;;4991192;28;20210;-50
2024/02/13 09:55:41;;;;;;;15.53;10.23;;;6.10;99.90;;;;;;5016768;28;20220;-47
2024/02/13 09:58:09;;;;;;;15.33;10.40;;;6.10;99.90;;;;;;5009111;28;20191;-47
2024/02/13 10:00:37;;;;;;;16.00;10.73;;;6.10;99.90;;;;;;5020106;28;20193;-48
2024/02/13 10:03:06;;;;;;;20.23;9.87;;;6.20;99.90;;;;;;5004951;28;20314;-50
2024/02/13 10:05:37;;;;;;;19.60;11.20;;;6.20;99.90;;;;;;5010925;28;20224;-51
2024/02/13 10:08:10;;;;;;;15.00;10.13;;;6.20;99.90;;;;;;4986486;28;20225;-46
2024/02/13 10:10:42;;;;;;;17.47;10.33;;;6.30;99.90;;;;;;5019433;28;20220;-46
2024/02/13 10:13:12;;;;;;;16.83;10.93;;;6.30;99.90;;;;;;5012786;28;20315;-48
2024/02/13 10:15:44;;;;;;;13.83;10.00;;;6.40;99.90;;;;;;5021599;28;20228;-51
2024/02/13 10:18:13;;;;;;;13.80;10.20;;;6.40;99.90;;;;;;5002996;28;20227;-49
2024/02/13 10:20:43;;;;;;;18.43;9.53;;;6.50;99.90;;;;;;5010955;28;20287;-49
2024/02/13 10:23:14;;;;;;;15.33;10.37;;;6.50;99.90;;;;;;4994356;28;20223;-49
2024/02/13 10:25:44;;;;;;;14.30;10.13;;;6.60;99.90;;;;;;5015110;28;20634;-47
2024/02/13 10:28:35;;;;;;;13.70;9.60;;;6.60;99.90;;;;;;5007209;28;20236;-45
2024/02/13 10:31:03;;;;;;;15.70;9.97;;;6.60;99.90;;;;;;5011769;28;20222;-47
2024/02/13 10:33:45;;;;;;;15.23;10.87;;;6.60;99.90;;;;;;5003958;28;20214;-47
2024/02/13 10:36:14;;;;;;;15.67;9.13;;;6.70;99.90;;;;;;5009032;28;20222;-45
2024/02/13 10:38:43;;;;;;;16.00;10.67;;;6.80;99.90;;;;;;4993378;28;20216;-47
2024/02/13 10:41:28;;;;;;;17.37;10.80;;;6.80;99.90;;;;;;5018942;28;20228;-45
2024/02/13 10:43:58;;;;;;;16.13;10.00;;;6.80;99.90;;;;;;5009763;28;20232;-51
2024/02/13 10:46:32;;;;;;;14.40;9.77;;;6.80;99.90;;;;;;5018988;28;20657;-51
2024/02/13 10:49:15;;;;;;;18.17;10.43;;;6.80;99.90;;;;;;4998408;28;21117;-47
2024/02/13 10:51:44;;;;;;;13.83;8.90;;;6.80;99.90;;;;;;5004525;28;20203;-49
2024/02/13 10:54:18;;;;;;;14.63;9.80;;;6.90;99.90;;;;;;4995160;28;20216;-49
2024/02/13 10:56:49;;;;;;;12.47;10.03;;;6.80;99.90;;;;;;5012693;28;20194;-48
2024/02/13 10:59:21;;;;;;;17.30;10.10;;;6.80;99.90;;;;;;5016483;28;20203;-46
2024/02/13 11:01:53;;;;;;;15.53;10.20;;;6.80;99.90;;;;;;5012502;28;20192;-46
2024/02/13 11:04:24;;;;;;;14.03;9.93;;;6.90;99.90;;;;;;5014530;28;20262;-47
2024/02/13 11:06:54;;;;;;;14.30;9.40;;;6.90;99.90;;;;;;5001199;28;20227;-47
2024/02/13 11:09:28;;;;;;;14.90;10.00;;;6.90;99.90;;;;;;5010052;28;20200;-46
2024/02/13 11:11:57;;;;;;;15.73;10.33;;;6.90;99.90;;;;;;5015825;28;20203;-45
2024/02/13 11:14:25;;;;;;;19.77;10.67;;;6.90;99.90;;;;;;5018782;28;20219;-47
2024/02/13 11:17:12;;;;;;;14.20;10.50;;;6.90;99.90;;;;;;5011904;28;20283;-45
2024/02/13 11:19:49;;;;;;;16.50;10.57;;;6.90;99.90;;;;;;4997283;28;20207;-46
2024/02/13 11:22:34;;;;;;;16.77;10.73;;;6.90;99.90;;;;;;5013614;28;20208;-48
2024/02/13 11:25:06;;;;;;;17.10;10.67;;;6.90;99.90;;;;;;5016004;28;20270;-47
2024/02/13 11:27:33;;;;;;;17.50;10.77;;;7.00;99.90;;;;;;4997201;28;20549;-49
2024/02/13 11:30:02;;;;;;;19.00;11.47;;;7.20;99.90;;;;;;5019626;28;20741;-50
2024/02/13 11:32:36;;;;;;;15.97;10.50;;;7.30;99.90;;;;;;5003254;28;20203;-51
2024/02/13 11:35:07;;;;;;;14.43;10.10;;;7.30;99.90;;;;;;5013874;28;20761;-50
2024/02/13 11:37:36;;;;;;;14.50;9.90;;;7.30;99.90;;;;;;5007549;28;20199;-49
2024/02/13 11:40:06;;;;;;;15.13;10.13;;;7.40;99.90;;;;;;5001657;28;20223;-50
2024/02/13 11:42:34;;;;;;;16.13;9.30;;;7.40;99.90;;;;;;4992177;28;20219;-44
2024/02/13 11:45:01;;;;;;;14.53;9.40;;;7.40;99.90;;;;;;5017771;28;20989;-47
2024/02/13 11:47:35;;;;;;;15.50;9.60;;;7.40;99.90;;;;;;5007395;28;20215;-45
2024/02/13 11:50:07;;;;;;;11.93;9.47;;;7.40;99.90;;;;;;5008716;28;20728;-48
2024/02/13 11:52:40;;;;;;;11.33;8.83;;;7.40;99.90;;;;;;5008852;28;20200;-46
2024/02/13 11:55:12;;;;;;;12.13;9.17;;;7.30;99.90;;;;;;5017508;28;20306;-47
2024/02/13 11:57:45;;;;;;;11.37;8.63;;;7.30;99.90;;;;;;4992058;28;20188;-47
2024/02/13 12:00:21;;;;;;;14.00;10.10;;;7.20;99.90;;;;;;5019882;28;20208;-46
2024/02/13 12:02:54;;;;;;;18.10;10.03;;;7.10;99.90;;;;;;5017345;28;20275;-46
2024/02/13 12:05:24;;;;;;;14.67;9.60;;;7.10;99.90;;;;;;5006585;28;20227;-49
2024/02/13 12:07:52;;;;;;;18.67;10.67;;;7.10;99.90;;;;;;5000958;28;20223;-50
2024/02/13 12:10:22;;;;;;;18.33;10.80;;;7.00;99.90;;;;;;5010817;28;20199;-50
2024/02/13 12:12:52;;;;;;;17.63;10.50;;;6.90;99.90;;;;;;4995295;28;20223;-49
2024/02/13 12:15:22;;;;;;;19.13;10.57;;;6.90;99.90;;;;;;5016328;28;20224;-53
2024/02/13 12:17:57;;;;;;;16.17;10.93;;;6.80;99.90;;;;;;5017423;28;20210;-54
2024/02/13 12:20:28;;;;;;;20.83;11.57;;;6.80;99.90;;;;;;5002259;28;20206;-53
2024/02/13 12:23:00;;;;;;;19.70;12.73;;;6.80;99.90;;;;;;5009634;28;20659;-49
2024/02/13 12:25:31;;;;;;;18.07;12.17;;;6.70;99.90;;;;;;5015787;28;20354;-47
2024/02/13 12:28:01;;;;;;;14.83;11.70;;;6.70;99.90;;;;;;4985868;28;20882;-49
2024/02/13 12:30:33;;;;;;;21.67;11.93;;;6.70;99.90;;;;;;5012919;28;20210;-51
2024/02/13 12:33:06;;;;;;;20.37;11.93;;;6.70;99.90;;;;;;5016140;28;20200;-47
2024/02/13 12:35:36;;;;;;;17.33;12.07;;;6.60;99.90;;;;;;5005600;28;20685;-47
2024/02/13 12:38:12;;;;;;;16.27;12.03;;;6.70;99.90;;;;;;5003860;28;20778;-50
2024/02/13 12:40:39;;;;;;;15.03;12.70;;;6.60;99.90;;;;;;5022388;28;20192;-45
2024/02/13 12:43:06;;;;;;;19.37;12.90;;;6.60;99.90;;;;;;4984551;28;20206;-47
2024/02/13 12:45:41;;;;;;;19.87;12.57;;;6.60;99.90;;;;;;5015429;28;20709;-46
2024/02/13 12:48:08;;;;;;;18.27;12.70;;;6.60;99.90;;;;;;5016248;28;20249;-49
2024/02/13 12:50:35;;;;;;;17.03;11.93;;;6.70;99.90;;;;;;5014612;28;20212;-47
2024/02/13 12:53:03;;;;;;;20.23;13.30;;;6.70;99.90;;;;;;5014683;28;20711;-49
2024/02/13 12:55:32;;;;;;;21.00;12.90;;;6.70;99.90;;;;;;5011360;28;20871;-47